Time;durP1;ratioP1;P1;durP2;ratioP2;P2;SDS_P1;SDS_P2;PMS_P1;PMS_P2;Temp;Humidity;BMP_temperature;BMP_pressure;BME280_temperature;BME280_humidity;BME280_pressure;Samples;Min_cycle;Max_cycle;Signal;HPM_P1;HPM_P2
2023/01/20 00:01:53;;;;;;;14.70;3.90;;;;;;;1.27;100.00;100447.69;5015363;28;20553;-76
2023/01/20 00:04:18;;;;;;;15.83;3.90;;;;;;;1.15;100.00;100453.03;5015556;28;20026;-76
2023/01/20 00:06:44;;;;;;;30.80;4.37;;;;;;;1.29;100.00;100439.59;5015181;28;20029;-75
2023/01/20 00:09:15;;;;;;;29.37;4.37;;;;;;;1.33;100.00;100436.59;5015521;28;20029;-76
2023/01/20 00:11:40;;;;;;;19.08;3.55;;;;;;;1.22;100.00;100444.50;5015154;28;20028;-76
2023/01/20 00:14:05;;;;;;;22.10;4.60;;;;;;;1.40;100.00;100441.50;5018009;28;20025;-75
2023/01/20 00:16:31;;;;;;;26.27;4.13;;;;;;;1.26;100.00;100443.34;5032090;28;20026;-75
2023/01/20 00:18:56;;;;;;;21.77;3.83;;;;;;;1.31;100.00;100459.88;5033778;28;20028;-75
2023/01/20 00:21:22;;;;;;;15.23;3.97;;;;;;;1.20;100.00;100445.59;5035140;28;20023;-76
2023/01/20 00:23:48;;;;;;;19.00;3.67;;;;;;;1.23;100.00;100448.88;5034736;28;20029;-75
2023/01/20 00:26:16;;;;;;;11.80;4.37;;;;;;;1.30;100.00;100462.63;5035016;28;20020;-76
2023/01/20 00:28:42;;;;;;;18.30;3.83;;;;;;;1.29;100.00;100461.75;5034786;28;20055;-76
2023/01/20 00:31:17;;;;;;;18.97;4.10;;;;;;;1.08;100.00;100463.28;5052884;28;20056;-76
2023/01/20 00:33:43;;;;;;;14.93;3.30;;;;;;;1.15;100.00;100464.56;5034402;28;20052;-76
2023/01/20 00:36:09;;;;;;;20.47;3.77;;;;;;;1.24;100.00;100469.25;5051418;28;20021;-75
2023/01/20 00:38:35;;;;;;;20.80;3.83;;;;;;;1.30;100.00;100471.50;5034909;28;20021;-76
2023/01/20 00:41:00;;;;;;;21.73;3.80;;;;;;;1.10;100.00;100474.69;5051172;28;20029;-76
2023/01/20 00:43:26;;;;;;;18.97;4.47;;;;;;;1.28;100.00;100485.88;5034387;28;20109;-75
2023/01/20 00:45:51;;;;;;;20.40;3.63;;;;;;;1.11;100.00;100481.75;5034888;28;20032;-75
2023/01/20 00:48:17;;;;;;;16.00;4.13;;;;;;;1.06;100.00;100484.72;5034411;28;20048;-75
2023/01/20 00:50:42;;;;;;;22.37;4.50;;;;;;;1.33;100.00;100478.41;5034502;28;20025;-75
2023/01/20 00:53:07;;;;;;;21.53;4.37;;;;;;;1.11;100.00;100489.75;5034502;28;20036;-75
2023/01/20 00:55:33;;;;;;;24.40;4.87;;;;;;;1.13;100.00;100493.16;5034415;28;20123;-75
2023/01/20 00:57:58;;;;;;;29.60;5.17;;;;;;;1.00;100.00;100503.81;5034241;28;20146;-75
2023/01/20 01:00:23;;;;;;;20.83;5.80;;;;;;;0.96;100.00;100498.78;5034537;28;20037;-75
2023/01/20 01:02:49;;;;;;;32.07;6.57;;;;;;;0.91;100.00;100503.59;5033756;28;20025;-75
2023/01/20 01:05:14;;;;;;;17.63;6.20;;;;;;;0.96;100.00;100496.13;5034842;28;20035;-76
2023/01/20 01:07:39;;;;;;;25.17;7.00;;;;;;;0.94;100.00;100508.72;5052285;28;20478;-76
2023/01/20 01:10:05;;;;;;;28.93;6.57;;;;;;;0.88;100.00;100514.47;5033904;28;20024;-76
2023/01/20 01:12:31;;;;;;;20.67;6.97;;;;;;;0.95;100.00;100521.09;5034698;28;20044;-76
2023/01/20 01:14:56;;;;;;;30.07;8.43;;;;;;;0.82;100.00;100527.25;5034379;28;20039;-75
2023/01/20 01:17:22;;;;;;;35.20;8.40;;;;;;;0.72;100.00;100522.66;5050563;28;20033;-76
2023/01/20 01:19:51;;;;;;;44.90;9.83;;;;;;;0.89;100.00;100526.84;5052592;28;20389;-76
2023/01/20 01:22:16;;;;;;;30.37;11.07;;;;;;;0.74;100.00;100534.91;5050709;28;20087;-76
2023/01/20 01:24:45;;;;;;;27.73;10.67;;;;;;;0.89;100.00;100532.16;5034551;28;20465;-76
2023/01/20 01:27:10;;;;;;;32.80;11.30;;;;;;;0.86;100.00;100540.38;5033812;28;20493;-76
2023/01/20 01:29:35;;;;;;;40.73;13.23;;;;;;;0.93;100.00;100539.00;5034294;28;20073;-76
2023/01/20 01:32:01;;;;;;;39.53;13.27;;;;;;;0.99;100.00;100549.25;5033559;28;20032;-76
2023/01/20 01:34:26;;;;;;;38.93;13.97;;;;;;;1.00;100.00;100550.94;5051671;28;20029;-76
2023/01/20 01:36:51;;;;;;;41.50;14.03;;;;;;;0.77;100.00;100549.81;5051494;28;20114;-76
2023/01/20 01:39:17;;;;;;;37.87;15.57;;;;;;;0.68;100.00;100551.31;5033906;28;20036;-76
2023/01/20 01:41:42;;;;;;;52.67;15.93;;;;;;;0.70;100.00;100560.06;5033842;28;20078;-76
2023/01/20 01:44:10;;;;;;;34.77;14.47;;;;;;;0.50;100.00;100558.72;5033539;28;20025;-76
2023/01/20 01:46:37;;;;;;;47.50;16.93;;;;;;;0.42;100.00;100549.53;5033703;28;20103;-76
2023/01/20 01:49:12;;;;;;;36.83;15.90;;;;;;;0.55;100.00;100566.41;5033355;28;20037;-75
2023/01/20 01:51:43;;;;;;;49.30;18.80;;;;;;;0.52;100.00;100561.28;5033797;28;20041;-76
2023/01/20 01:54:16;;;;;;;50.88;19.75;;;;;;;0.38;100.00;100561.34;5050308;28;20025;-76
2023/01/20 01:56:43;;;;;;;40.93;18.80;;;;;;;0.41;100.00;100566.47;5033666;28;20029;-76
2023/01/20 01:59:10;;;;;;;46.00;19.17;;;;;;;0.40;100.00;100567.44;5033556;28;20075;-76
2023/01/20 02:01:39;;;;;;;54.23;19.43;;;;;;;0.42;100.00;100570.84;5020463;28;20025;-76
2023/01/20 02:04:19;;;;;;;42.73;18.43;;;;;;;0.29;100.00;100564.63;5014191;28;20030;-76
2023/01/20 02:06:49;;;;;;;48.30;19.60;;;;;;;0.12;100.00;100579.00;5015778;28;20363;-76
2023/01/20 02:09:15;;;;;;;48.80;22.83;;;;;;;-0.05;100.00;100577.44;5017392;28;20075;-76
2023/01/20 02:11:47;;;;;;;67.20;24.57;;;;;;;-0.09;100.00;100581.25;5017565;28;20030;-76
2023/01/20 02:14:15;;;;;;;52.40;24.17;;;;;;;-0.03;100.00;100587.03;5017969;28;20436;-76
2023/01/20 02:17:08;;;;;;;56.37;25.03;;;;;;;-0.04;100.00;100595.97;5017862;28;20064;-76
2023/01/20 02:19:55;;;;;;;70.47;26.30;;;;;;;-0.07;100.00;100601.47;5035066;28;20108;-76
2023/01/20 02:22:31;;;;;;;68.60;27.10;;;;;;;-0.02;100.00;100598.53;5017421;28;20029;-76
2023/01/20 02:25:12;;;;;;;75.80;26.53;;;;;;;-0.05;100.00;100598.72;5017704;28;20029;-76
2023/01/20 02:28:11;;;;;;;63.53;25.65;;;;;;;-0.10;100.00;100606.13;5017421;28;20021;-76
2023/01/20 02:30:45;;;;;;;80.93;30.90;;;;;;;-0.07;100.00;100600.59;5017740;28;20079;-76
2023/01/20 02:33:20;;;;;;;80.90;33.23;;;;;;;-0.07;100.00;100616.56;5017616;28;20033;-76
2023/01/20 02:35:50;;;;;;;84.07;33.00;;;;;;;-0.27;100.00;100610.69;5034394;28;20059;-76
2023/01/20 02:38:26;;;;;;;104.80;35.87;;;;;;;-0.25;100.00;100612.44;5017628;28;20060;-76
2023/01/20 02:41:04;;;;;;;94.60;36.30;;;;;;;-0.28;100.00;100619.63;5016979;28;20108;-76
2023/01/20 02:43:56;;;;;;;100.17;37.23;;;;;;;-0.09;100.00;100613.16;5017349;28;20041;-76
2023/01/20 02:46:35;;;;;;;91.83;36.00;;;;;;;0.01;100.00;100624.97;5035679;28;20029;-76
2023/01/20 02:49:18;;;;;;;90.73;35.47;;;;;;;0.05;100.00;100631.78;5054875;28;20041;-76
2023/01/20 02:51:55;;;;;;;92.97;35.57;;;;;;;0.10;100.00;100629.69;5023381;28;20029;-76
2023/01/20 02:54:22;;;;;;;90.90;35.87;;;;;;;0.10;100.00;100635.00;5016865;28;20036;-76
2023/01/20 02:56:50;;;;;;;84.20;36.40;;;;;;;0.12;100.00;100633.09;5022585;28;20408;-76
2023/01/20 02:59:22;;;;;;;82.50;34.77;;;;;;;0.08;100.00;100631.59;5036727;28;20029;-75
2023/01/20 03:01:54;;;;;;;75.95;34.65;;;;;;;0.09;100.00;100643.94;5037280;28;20025;-75
2023/01/20 03:04:26;;;;;;;86.13;33.97;;;;;;;0.37;100.00;100643.03;5036861;28;20051;-76
2023/01/20 03:06:55;;;;;;;75.33;35.53;;;;;;;0.29;100.00;100639.16;5037064;28;20039;-76
2023/01/20 03:09:26;;;;;;;70.13;33.43;;;;;;;0.39;100.00;100656.25;5036221;28;20051;-76
2023/01/20 03:11:59;;;;;;;80.80;38.13;;;;;;;0.39;100.00;100648.25;5036541;28;20055;-76
2023/01/20 03:14:25;;;;;;;81.60;37.43;;;;;;;0.39;100.00;100645.59;5053989;28;20048;-76
2023/01/20 03:16:51;;;;;;;85.63;39.37;;;;;;;0.38;100.00;100654.53;5053796;28;20370;-76
2023/01/20 03:19:17;;;;;;;82.30;37.60;;;;;;;0.47;100.00;100659.28;5035076;28;20028;-76
2023/01/20 03:21:43;;;;;;;92.70;40.47;;;;;;;0.32;100.00;100644.28;5035511;28;20100;-76
2023/01/20 03:24:10;;;;;;;81.30;39.00;;;;;;;0.44;100.00;100655.00;5052953;28;20115;-76
2023/01/20 03:26:36;;;;;;;89.93;38.43;;;;;;;0.47;100.00;100654.81;5044030;28;20025;-76
2023/01/20 03:29:05;;;;;;;81.40;38.43;;;;;;;0.38;100.00;100654.53;5035374;28;20040;-76
2023/01/20 03:31:45;;;;;;;99.37;43.57;;;;;;;0.37;100.00;100658.16;5031895;28;20025;-76
2023/01/20 03:34:14;;;;;;;90.70;41.00;;;;;;;0.39;100.00;100650.91;5016396;28;20059;-76
2023/01/20 03:36:42;;;;;;;94.63;44.07;;;;;;;0.34;100.00;100663.69;5035428;28;20020;-76
2023/01/20 03:39:08;;;;;;;102.93;41.30;;;;;;;0.47;100.00;100659.28;5035296;28;20089;-76
2023/01/20 03:41:53;;;;;;;96.93;44.10;;;;;;;0.43;100.00;100660.44;5053222;28;20162;-76
2023/01/20 03:44:49;;;;;;;104.33;46.13;;;;;;;0.28;100.00;100658.75;5035357;28;20060;-76
2023/01/20 03:48:09;;;;;;;105.40;45.73;;;;;;;0.26;100.00;100665.03;5034989;28;20037;-76
2023/01/20 03:50:55;;;;;;;103.17;46.00;;;;;;;0.26;100.00;100662.38;4952690;29;20122;-76
2023/01/20 03:53:29;;;;;;;90.87;42.97;;;;;;;0.35;100.00;100676.06;5016280;28;20099;-76
2023/01/20 03:56:03;;;;;;;102.53;44.17;;;;;;;0.29;100.00;100676.44;5034085;28;20037;-76
2023/01/20 03:58:34;;;;;;;93.30;46.80;;;;;;;0.21;100.00;100691.09;5035148;28;20029;-76
2023/01/20 04:01:04;;;;;;;98.22;45.67;;;;;;;0.25;100.00;100692.59;5034966;28;20486;-76
2023/01/20 04:03:32;;;;;;;98.03;45.27;;;;;;;0.18;100.00;100691.28;5035197;28;20080;-76
2023/01/20 04:06:01;;;;;;;96.17;41.93;;;;;;;0.39;100.00;100698.84;5052818;28;20021;-76
2023/01/20 04:08:32;;;;;;;107.83;45.50;;;;;;;0.47;100.00;100702.75;5034989;28;20067;-76
2023/01/20 04:11:00;;;;;;;109.28;46.40;;;;;;;0.38;100.00;100707.78;5034909;28;20053;-76
2023/01/20 04:13:25;;;;;;;104.63;46.10;;;;;;;0.37;100.00;100706.09;5034686;28;20440;-76
2023/01/20 04:15:51;;;;;;;92.83;43.53;;;;;;;0.25;100.00;100708.56;5048328;28;20032;-76
2023/01/20 04:18:19;;;;;;;108.73;50.60;;;;;;;0.12;100.00;100707.63;5052671;28;20025;-76
2023/01/20 04:20:48;;;;;;;115.23;57.63;;;;;;;0.02;100.00;100716.31;5052745;28;20020;-76
2023/01/20 04:23:30;;;;;;;101.97;46.10;;;;;;;0.20;100.00;100710.69;5053111;28;20389;-75
2023/01/20 04:25:55;;;;;;;123.03;48.73;;;;;;;0.16;100.00;100719.81;5038808;28;20385;-75
2023/01/20 04:28:20;;;;;;;107.90;48.97;;;;;;;0.16;100.00;100714.47;5032595;28;20017;-75
2023/01/20 04:30:46;;;;;;;110.50;48.30;;;;;;;0.19;100.00;100730.25;5032921;28;20074;-75
2023/01/20 04:33:12;;;;;;;112.30;48.53;;;;;;;0.19;100.00;100724.91;5033120;28;20355;-75
2023/01/20 04:35:37;;;;;;;105.63;47.53;;;;;;;0.42;100.00;100736.81;5032759;28;20033;-75
2023/01/20 04:38:02;;;;;;;107.80;46.37;;;;;;;0.22;100.00;100730.06;5050252;28;20558;-75
2023/01/20 04:40:28;;;;;;;120.27;48.53;;;;;;;0.12;100.00;100750.22;5032727;28;20036;-76
2023/01/20 04:42:53;;;;;;;99.03;45.53;;;;;;;0.21;100.00;100739.00;5032744;28;20481;-75
2023/01/20 04:45:19;;;;;;;101.07;45.83;;;;;;;0.24;100.00;100754.78;5032178;28;20033;-75
2023/01/20 04:47:44;;;;;;;99.50;44.07;;;;;;;0.09;100.00;100746.91;5032246;28;20028;-75
2023/01/20 04:50:10;;;;;;;102.97;49.23;;;;;;;0.15;100.00;100750.03;5032519;28;20021;-75
2023/01/20 04:52:35;;;;;;;109.83;46.13;;;;;;;0.30;100.00;100763.34;5032488;28;20521;-75
2023/01/20 04:55:02;;;;;;;99.03;43.63;;;;;;;0.16;100.00;100762.41;5032540;28;20132;-75
2023/01/20 04:57:27;;;;;;;101.47;46.90;;;;;;;0.16;100.00;100764.22;5031894;28;20029;-75
2023/01/20 04:59:52;;;;;;;98.53;45.73;;;;;;;0.18;100.00;100763.16;5050141;28;20029;-75
2023/01/20 05:02:18;;;;;;;95.27;43.67;;;;;;;0.19;100.00;100769.31;5032318;28;20040;-75
2023/01/20 05:04:44;;;;;;;101.30;44.53;;;;;;;0.18;100.00;100776.47;5032414;28;20496;-76
2023/01/20 05:07:10;;;;;;;92.57;40.97;;;;;;;0.07;100.00;100773.63;5032090;28;20427;-75
2023/01/20 05:09:35;;;;;;;89.57;38.63;;;;;;;0.17;100.00;100785.41;5032325;28;20115;-75
2023/01/20 05:12:00;;;;;;;93.93;41.30;;;;;;;0.14;100.00;100776.75;5032002;28;20032;-76
2023/01/20 05:14:26;;;;;;;97.20;44.00;;;;;;;0.13;100.00;100778.56;5032433;28;20098;-76
2023/01/20 05:16:51;;;;;;;105.57;45.03;;;;;;;0.13;100.00;100783.91;5031627;28;20186;-76
2023/01/20 05:19:16;;;;;;;90.17;43.67;;;;;;;0.17;100.00;100796.06;5031600;28;20498;-75
2023/01/20 05:21:42;;;;;;;90.93;42.77;;;;;;;0.04;100.00;100800.41;5053175;28;20085;-76
2023/01/20 05:24:08;;;;;;;89.77;46.63;;;;;;;-0.09;100.00;100799.44;5052100;28;20036;-75
2023/01/20 05:26:33;;;;;;;92.23;37.73;;;;;;;-0.01;100.00;100808.66;5070092;28;20020;-76
2023/01/20 05:28:59;;;;;;;97.20;37.63;;;;;;;0.07;100.00;100808.22;5052202;28;20028;-75
2023/01/20 05:31:24;;;;;;;99.77;42.20;;;;;;;0.12;100.00;100819.44;5069683;28;20381;-75
2023/01/20 05:33:50;;;;;;;91.67;41.90;;;;;;;0.02;100.00;100807.66;5047123;28;20025;-75
2023/01/20 05:36:15;;;;;;;98.80;39.93;;;;;;;0.03;100.00;100820.00;5049381;28;20075;-75
2023/01/20 05:38:41;;;;;;;90.57;39.87;;;;;;;0.06;100.00;100814.47;5031220;28;20057;-75
2023/01/20 05:41:08;;;;;;;92.37;39.07;;;;;;;0.18;100.00;100819.06;5030894;28;20075;-76
2023/01/20 05:43:33;;;;;;;88.83;37.67;;;;;;;0.25;100.00;100820.41;5031779;28;20060;-76
2023/01/20 05:45:59;;;;;;;88.73;39.07;;;;;;;0.08;100.00;100833.88;5031626;28;20075;-76
2023/01/20 05:48:25;;;;;;;93.83;38.80;;;;;;;0.14;100.00;100828.19;5031315;28;20036;-75
2023/01/20 05:50:51;;;;;;;82.63;38.10;;;;;;;0.02;100.00;100834.25;5036488;28;20024;-75
2023/01/20 05:53:17;;;;;;;92.87;36.80;;;;;;;0.14;100.00;100827.34;5034786;28;20054;-75
2023/01/20 05:55:43;;;;;;;84.50;35.50;;;;;;;0.25;100.00;100833.72;5030955;28;20036;-76
2023/01/20 05:58:09;;;;;;;88.33;39.27;;;;;;;0.40;100.00;100844.41;5031570;28;20024;-76
2023/01/20 06:00:35;;;;;;;94.20;40.77;;;;;;;0.12;100.00;100840.72;5031509;28;20029;-75
2023/01/20 06:03:00;;;;;;;87.77;34.40;;;;;;;0.29;100.00;100852.19;5032054;28;20040;-76
2023/01/20 06:05:25;;;;;;;80.57;34.83;;;;;;;0.30;100.00;100853.88;5032245;28;20067;-76
2023/01/20 06:07:53;;;;;;;86.10;39.27;;;;;;;0.12;100.00;100856.69;5031389;28;20029;-76
2023/01/20 06:10:19;;;;;;;79.37;34.57;;;;;;;0.24;100.00;100866.63;5031446;28;20122;-75
2023/01/20 06:12:51;;;;;;;88.90;35.77;;;;;;;0.21;100.00;100872.13;5048815;28;20068;-76
2023/01/20 06:15:17;;;;;;;88.50;38.80;;;;;;;0.15;100.00;100864.53;5031296;28;20124;-75
2023/01/20 06:17:42;;;;;;;94.40;38.90;;;;;;;0.23;100.00;100870.22;5031149;28;20104;-76
2023/01/20 06:20:09;;;;;;;93.07;39.43;;;;;;;0.30;100.00;100885.84;5031141;28;20025;-75
2023/01/20 06:22:34;;;;;;;88.63;36.97;;;;;;;0.57;100.00;100896.63;5011693;28;20351;-76
2023/01/20 06:25:00;;;;;;;92.07;35.80;;;;;;;0.40;100.00;100895.00;5011359;28;20043;-75
2023/01/20 06:27:25;;;;;;;92.10;37.20;;;;;;;0.37;100.00;100892.50;5011465;28;20048;-75
2023/01/20 06:29:50;;;;;;;76.67;34.90;;;;;;;0.49;100.00;100902.41;5011334;28;20064;-77
2023/01/20 06:32:16;;;;;;;78.37;35.23;;;;;;;0.58;100.00;100912.50;5011401;28;20117;-76
2023/01/20 06:34:41;;;;;;;87.80;35.10;;;;;;;0.49;100.00;100913.06;5011589;28;20029;-76
2023/01/20 06:37:06;;;;;;;73.90;34.87;;;;;;;0.45;100.00;100911.53;5011042;28;20036;-76
2023/01/20 06:39:32;;;;;;;97.43;39.00;;;;;;;0.54;100.00;100919.00;5010837;28;20037;-75
2023/01/20 06:41:58;;;;;;;85.53;37.93;;;;;;;0.61;100.00;100917.66;5011026;28;20026;-76
2023/01/20 06:44:26;;;;;;;84.40;36.10;;;;;;;0.55;100.00;100928.69;5011076;28;20025;-76
2023/01/20 06:46:51;;;;;;;80.90;36.50;;;;;;;0.62;100.00;100919.38;5028286;28;20076;-76
2023/01/20 06:49:17;;;;;;;87.60;36.33;;;;;;;0.79;100.00;100932.53;5010771;28;20064;-76
2023/01/20 06:51:42;;;;;;;85.30;36.27;;;;;;;0.59;100.00;100919.56;5010820;28;20026;-76
2023/01/20 06:54:08;;;;;;;92.50;39.50;;;;;;;0.45;100.00;100930.19;5014507;28;20032;-76
2023/01/20 06:56:33;;;;;;;89.20;39.97;;;;;;;0.48;100.00;100938.00;5014564;28;20029;-76
2023/01/20 06:58:58;;;;;;;92.97;36.13;;;;;;;0.36;100.00;100933.41;5014329;28;20029;-76
2023/01/20 07:01:26;;;;;;;77.73;35.73;;;;;;;0.49;100.00;100939.72;5014273;28;20064;-76
2023/01/20 07:03:52;;;;;;;80.67;37.03;;;;;;;0.52;100.00;100947.50;5023377;28;20036;-75
2023/01/20 07:06:33;;;;;;;91.33;39.10;;;;;;;0.46;100.00;100950.56;5034089;28;20025;-76
2023/01/20 07:08:59;;;;;;;87.88;37.25;;;;;;;0.58;100.00;100959.59;5020988;28;20029;-76
2023/01/20 07:11:25;;;;;;;83.07;36.10;;;;;;;0.77;100.00;100969.06;5014648;28;20148;-76
2023/01/20 07:13:51;;;;;;;98.33;36.37;;;;;;;0.57;100.00;100974.72;5032505;28;20022;-76
2023/01/20 07:16:16;;;;;;;77.27;31.33;;;;;;;0.54;100.00;100964.28;5014560;28;20029;-76
2023/01/20 07:18:46;;;;;;;82.80;33.50;;;;;;;0.64;100.00;100970.75;5014193;28;20025;-76
2023/01/20 07:21:11;;;;;;;78.90;32.60;;;;;;;0.53;100.00;100979.41;5039264;28;20047;-76
2023/01/20 07:23:36;;;;;;;81.67;32.10;;;;;;;0.79;100.00;100985.84;5034208;28;20033;-76
2023/01/20 07:26:11;;;;;;;79.83;31.00;;;;;;;0.54;100.00;100985.59;5034637;28;20498;-76
2023/01/20 07:28:39;;;;;;;76.47;32.10;;;;;;;0.39;100.00;100986.47;5034805;28;20017;-76
2023/01/20 07:31:07;;;;;;;78.13;33.37;;;;;;;0.46;100.00;100994.03;5034641;28;20200;-76
2023/01/20 07:33:37;;;;;;;87.97;37.45;;;;;;;0.38;100.00;101000.75;5035102;28;20071;-75
2023/01/20 07:36:03;;;;;;;95.80;37.83;;;;;;;0.42;100.00;101002.28;5026585;28;20061;-74
2023/01/20 07:38:28;;;;;;;85.77;36.27;;;;;;;0.46;100.00;101003.84;5019341;28;20025;-73
2023/01/20 07:41:02;;;;;;;92.67;34.63;;;;;;;0.58;100.00;101016.41;5033605;28;20382;-73
2023/01/20 07:43:28;;;;;;;78.00;33.20;;;;;;;0.73;100.00;101018.19;5024849;28;20017;-74
2023/01/20 07:46:02;;;;;;;86.23;34.97;;;;;;;0.44;100.00;101016.38;5027009;28;20017;-74
2023/01/20 07:48:30;;;;;;;73.77;33.07;;;;;;;0.44;100.00;101027.03;5019460;28;20486;-74
2023/01/20 07:51:01;;;;;;;86.47;35.00;;;;;;;0.56;100.00;101031.63;5017942;28;20108;-75
2023/01/20 07:53:28;;;;;;;77.43;33.25;;;;;;;0.55;100.00;101037.91;5041248;28;20030;-74
2023/01/20 07:55:53;;;;;;;88.77;31.77;;;;;;;0.62;100.00;101047.25;5022986;28;20093;-75
2023/01/20 07:58:19;;;;;;;80.10;32.50;;;;;;;0.80;100.00;101051.50;5012703;28;20108;-76
2023/01/20 08:00:47;;;;;;;81.33;31.60;;;;;;;0.68;100.00;101046.91;5036152;28;20134;-76
2023/01/20 08:03:13;;;;;;;81.43;33.53;;;;;;;0.45;100.00;101055.38;5030563;28;20029;-75
2023/01/20 08:05:39;;;;;;;77.13;31.73;;;;;;;0.45;100.00;101050.03;5009062;28;20469;-76
2023/01/20 08:08:04;;;;;;;72.53;29.07;;;;;;;0.57;100.00;101054.66;5019186;28;20033;-76
2023/01/20 08:10:29;;;;;;;74.03;31.70;;;;;;;0.50;100.00;101066.63;5019832;28;20029;-75
2023/01/20 08:12:55;;;;;;;79.30;30.83;;;;;;;0.64;100.00;101072.00;5015275;28;20022;-74
2023/01/20 08:15:20;;;;;;;70.43;29.97;;;;;;;0.59;100.00;101079.44;5012736;28;20021;-74
2023/01/20 08:17:45;;;;;;;67.93;31.03;;;;;;;0.73;100.00;101081.28;5021815;28;20084;-74
2023/01/20 08:20:11;;;;;;;75.43;30.23;;;;;;;0.84;100.00;101080.63;5016784;28;20028;-74
2023/01/20 08:22:38;;;;;;;70.73;27.23;;;;;;;0.91;100.00;101084.63;5023784;28;20497;-75
2023/01/20 08:25:03;;;;;;;75.43;30.30;;;;;;;0.81;100.00;101087.84;5014669;28;20044;-75
2023/01/20 08:27:28;;;;;;;70.93;30.60;;;;;;;0.84;100.00;101099.28;5008559;28;20028;-75
2023/01/20 08:29:54;;;;;;;67.87;28.47;;;;;;;0.50;100.00;101096.78;5025012;28;20056;-74
2023/01/20 08:32:19;;;;;;;67.93;28.00;;;;;;;0.45;100.00;101105.97;5018976;28;20031;-74
2023/01/20 08:34:45;;;;;;;66.63;30.53;;;;;;;0.61;100.00;101104.16;5009522;28;20044;-74
2023/01/20 08:37:10;;;;;;;65.57;27.07;;;;;;;0.68;100.00;101102.84;5014503;28;20037;-74
2023/01/20 08:39:36;;;;;;;79.27;29.63;;;;;;;0.61;100.00;101109.50;5008360;28;20092;-73
2023/01/20 08:42:01;;;;;;;62.37;28.50;;;;;;;0.74;100.00;101105.16;5014580;28;20090;-74
2023/01/20 08:44:27;;;;;;;63.47;27.80;;;;;;;0.80;100.00;101115.47;5006615;28;20096;-74
2023/01/20 08:46:58;;;;;;;78.27;30.63;;;;;;;0.82;100.00;101108.22;5015063;28;20043;-73
2023/01/20 08:49:24;;;;;;;70.03;30.77;;;;;;;0.97;100.00;101113.59;5011690;28;20119;-74
2023/01/20 08:51:49;;;;;;;61.63;27.60;;;;;;;0.92;100.00;101113.03;5041097;28;20115;-75
2023/01/20 08:54:15;;;;;;;55.47;24.67;;;;;;;0.88;100.00;101132.81;5024603;28;20115;-74
2023/01/20 08:56:41;;;;;;;54.97;24.13;;;;;;;0.78;100.00;101128.03;5009107;28;20083;-75
2023/01/20 08:59:06;;;;;;;66.27;27.83;;;;;;;0.53;100.00;101127.72;5045212;28;20025;-74
2023/01/20 09:01:34;;;;;;;59.97;25.07;;;;;;;0.47;100.00;101133.41;5045411;28;20017;-74
2023/01/20 09:04:00;;;;;;;60.30;26.20;;;;;;;0.64;100.00;101135.94;5027948;28;20048;-75
2023/01/20 09:06:26;;;;;;;59.60;25.20;;;;;;;0.66;100.00;101144.72;5022182;28;20044;-74
2023/01/20 09:08:52;;;;;;;54.70;22.50;;;;;;;0.69;100.00;101144.53;5014907;28;20017;-74
2023/01/20 09:11:20;;;;;;;57.67;24.23;;;;;;;0.77;100.00;101147.59;5023614;28;20104;-75
2023/01/20 09:13:46;;;;;;;54.10;24.77;;;;;;;0.71;100.00;101153.28;5019964;28;20461;-74
2023/01/20 09:16:16;;;;;;;66.80;27.13;;;;;;;0.64;100.00;101151.94;5042243;28;20112;-74
2023/01/20 09:18:42;;;;;;;61.00;27.23;;;;;;;0.76;100.00;101156.56;5023289;28;20033;-74
2023/01/20 09:21:08;;;;;;;60.07;26.30;;;;;;;0.71;100.00;101153.28;5017055;28;20021;-74
2023/01/20 09:23:37;;;;;;;61.60;26.00;;;;;;;0.75;100.00;101160.19;5030251;28;20063;-74
2023/01/20 09:26:05;;;;;;;72.73;30.67;;;;;;;1.02;100.00;101163.03;5015402;28;20057;-74
2023/01/20 09:28:31;;;;;;;69.47;28.13;;;;;;;1.05;100.00;101178.03;5038579;28;20013;-75
2023/01/20 09:31:02;;;;;;;63.67;25.17;;;;;;;1.11;100.00;101167.00;5015017;28;20028;-74
2023/01/20 09:33:28;;;;;;;74.17;27.73;;;;;;;1.21;100.00;101178.81;5023379;28;20095;-74
2023/01/20 09:35:58;;;;;;;69.53;27.20;;;;;;;1.26;100.00;101176.75;5016896;28;20025;-74
2023/01/20 09:44:23;;;;;;;68.95;28.25;;;;;;;1.47;100.00;101185.25;5026876;28;20025;-74
2023/01/20 09:47:19;;;;;;;61.95;25.83;;;;;;;1.21;100.00;101200.16;5006281;28;20109;-74
2023/01/20 09:53:06;;;;;;;70.03;27.80;;;;;;;1.29;100.00;101205.88;5038970;28;20120;-74
2023/01/20 09:55:52;;;;;;;;;;;;;;;1.29;100.00;101208.56;5012011;28;20470;-74
2023/01/20 09:58:50;;;;;;;61.97;26.97;;;;;;;1.34;100.00;101211.81;5010091;28;19913;-75
2023/01/20 10:01:23;;;;;;;66.87;28.07;;;;;;;1.49;100.00;101214.50;5014840;28;20060;-75
2023/01/20 10:03:53;;;;;;;63.43;28.17;;;;;;;1.31;100.00;101222.69;5015859;28;20116;-74
2023/01/20 10:06:25;;;;;;;75.43;32.93;;;;;;;1.37;100.00;101216.13;5032560;28;20037;-74
2023/01/20 10:08:58;;;;;;;73.55;31.25;;;;;;;1.29;100.00;101224.56;5007551;28;20097;-75
2023/01/20 10:11:27;;;;;;;65.83;29.90;;;;;;;1.26;100.00;101219.41;5014897;28;20030;-75
2023/01/20 10:14:06;;;;;;;69.30;32.20;;;;;;;1.16;100.00;101218.22;5010541;28;20017;-75
2023/01/20 10:16:41;;;;;;;69.30;30.10;;;;;;;1.25;100.00;101239.03;5012616;28;20504;-75
2023/01/20 10:19:15;;;;;;;65.93;31.10;;;;;;;1.26;100.00;101240.75;5042926;28;20036;-75
2023/01/20 10:21:49;;;;;;;65.97;30.57;;;;;;;1.41;100.00;101238.13;5024500;28;20044;-75
2023/01/20 10:24:29;;;;;;;64.43;29.53;;;;;;;1.55;100.00;101231.00;5021595;28;20071;-75
2023/01/20 10:27:01;;;;;;;59.63;27.00;;;;;;;1.38;100.00;101222.31;5016351;28;20096;-75
2023/01/20 10:29:35;;;;;;;;;;;;;;;1.16;100.00;101239.56;5030821;28;20028;-75
2023/01/20 10:32:05;;;;;;;65.10;29.60;;;;;;;1.07;100.00;101230.28;5025757;28;20006;-75
2023/01/20 10:34:43;;;;;;;63.47;28.27;;;;;;;1.48;100.00;101228.81;5022039;28;20020;-75
2023/01/20 10:37:10;;;;;;;64.73;30.37;;;;;;;1.63;100.00;101222.56;5030301;28;20045;-76
2023/01/20 10:40:02;;;;;;;60.40;27.40;;;;;;;1.81;100.00;101226.78;5015104;28;20025;-75
2023/01/20 10:42:28;;;;;;;65.78;31.48;;;;;;;1.95;100.00;101225.06;5015596;28;20025;-75
2023/01/20 10:44:54;;;;;;;61.88;28.70;;;;;;;2.38;100.00;101229.47;5018464;28;20060;-75
2023/01/20 10:47:49;;;;;;;58.92;27.60;;;;;;;2.36;100.00;101228.72;5016592;28;20045;-76
2023/01/20 10:50:33;;;;;;;48.05;22.05;;;;;;;2.43;100.00;101234.53;5021989;28;20024;-75
2023/01/20 10:53:25;;;;;;;45.95;21.73;;;;;;;2.51;100.00;101236.69;5015296;28;20056;-75
2023/01/20 10:56:05;;;;;;;49.88;23.20;;;;;;;2.55;100.00;101239.09;5017850;28;20029;-75
2023/01/20 10:58:35;;;;;;;50.47;21.67;;;;;;;2.70;100.00;101237.25;5015127;28;20032;-75
2023/01/20 11:01:04;;;;;;;48.03;20.63;;;;;;;2.74;99.61;101244.13;5021080;28;20037;-75
2023/01/20 11:03:41;;;;;;;48.08;21.27;;;;;;;2.82;100.00;101241.81;5011998;28;20057;-75
2023/01/20 11:06:16;;;;;;;48.58;21.75;;;;;;;3.36;100.00;101247.13;5018315;28;20025;-75
2023/01/20 11:08:42;;;;;;;57.00;22.67;;;;;;;3.52;98.39;101237.13;5022193;28;20421;-75
2023/01/20 11:11:16;;;;;;;52.75;23.58;;;;;;;3.10;99.32;101250.69;5015361;28;20036;-75
2023/01/20 11:13:42;;;;;;;48.50;23.15;;;;;;;3.48;98.63;101256.16;5018665;28;20020;-75
2023/01/20 11:16:16;;;;;;;52.63;24.90;;;;;;;3.16;99.01;101255.63;5036826;28;20079;-75
2023/01/20 11:18:41;;;;;;;57.08;25.20;;;;;;;3.10;99.71;101256.03;5012420;28;20083;-75
2023/01/20 11:21:10;;;;;;;41.95;21.75;;;;;;;3.67;98.38;101255.78;5015546;28;20025;-75
2023/01/20 11:23:47;;;;;;;44.25;21.23;;;;;;;4.01;96.90;101255.16;5025985;28;20474;-75
2023/01/20 11:26:18;;;;;;;51.25;21.73;;;;;;;3.94;94.63;101259.25;5016366;28;20028;-74
2023/01/20 11:29:02;;;;;;;58.22;23.15;;;;;;;3.63;95.49;101259.63;5019825;28;20025;-75